Terminal Aerodrome Forecast
Issued by NWS

Home | Current Version | Previous Version | Text Only | Print | Product List | Glossary Off
Versions: 1 2 3 4 5 6 7 8 9 10 11 12 13 14 15 16 17 18

000
FTUS43 KICT 260852 AAA
TAFSLN
TAF AMD
KSLN 260852Z 2609/2706 36017G22KT P6SM BKN025
     FM261200 36017G22KT P6SM SCT025
     FM262000 01013KT P6SM SKC
     FM270000 03007KT P6SM SKC=

USA.gov is the U.S. government's official web portal to all federal, state and local government web resources and services.